createdAt,value
2017-11-24T00:01:03.128Z,6.47
2017-11-24T00:03:31.265Z,5.97
2017-11-24T00:06:04.258Z,4.43
2017-11-24T00:08:32.964Z,5.93
2017-11-24T00:11:00.951Z,5.03
2017-11-24T00:13:29.145Z,5.30
2017-11-24T00:15:58.710Z,4.73
2017-11-24T00:18:27.545Z,3.50
2017-11-24T00:20:55.568Z,4.73
2017-11-24T00:23:23.780Z,4.50
2017-11-24T00:25:51.997Z,8.10
2017-11-24T00:28:20.822Z,4.30
2017-11-24T00:30:48.862Z,5.20
2017-11-24T00:33:16.998Z,4.07
2017-11-24T00:35:45.125Z,5.67
2017-11-24T00:38:13.414Z,7.13
2017-11-24T00:40:42.203Z,10.33
2017-11-24T00:43:11.221Z,3.70
2017-11-24T00:45:39.835Z,2.90
2017-11-24T00:48:07.842Z,5.17
2017-11-24T00:50:36.364Z,7.70
2017-11-24T00:53:05.896Z,8.30
2017-11-24T00:55:33.949Z,6.23
2017-11-24T00:58:02.068Z,9.47
2017-11-24T01:00:30.111Z,6.10
2017-11-24T01:02:58.120Z,6.37
2017-11-24T01:05:27.583Z,3.17
2017-11-24T01:07:56.479Z,4.80
2017-11-24T01:10:24.696Z,2.87
2017-11-24T01:12:52.741Z,7.13
2017-11-24T01:15:21.510Z,7.70
2017-11-24T01:17:53.404Z,6.93
2017-11-24T01:20:22.544Z,6.53
2017-11-24T01:22:54.312Z,3.60
2017-11-24T01:25:23.682Z,5.27
2017-11-24T01:27:51.807Z,7.00
2017-11-24T01:30:19.856Z,7.57
2017-11-24T01:32:47.816Z,6.67
2017-11-24T01:35:17.770Z,4.37
2017-11-24T01:37:46.281Z,6.53
2017-11-24T01:42:49.548Z,3.87
2017-11-24T01:45:17.680Z,5.77
2017-11-24T01:47:46.324Z,4.23
2017-11-24T01:50:15.139Z,9.87
2017-11-24T01:52:43.107Z,4.23
2017-11-24T01:55:11.216Z,7.07
2017-11-24T01:57:39.305Z,6.93
2017-11-24T02:00:09.649Z,4.37
2017-11-24T02:02:37.858Z,6.37
2017-11-24T02:05:08.522Z,5.73
2017-11-24T02:07:36.611Z,5.80
2017-11-24T02:10:04.652Z,5.13
2017-11-24T02:12:32.926Z,5.13
2017-11-24T02:15:04.864Z,6.63
2017-11-24T02:17:33.217Z,3.00
2017-11-24T02:20:02.633Z,6.83
2017-11-24T02:22:31.168Z,4.60
2017-11-24T02:24:59.177Z,8.43
2017-11-24T02:27:28.720Z,5.20
2017-11-24T02:29:57.388Z,6.03
2017-11-24T02:32:25.475Z,5.17
2017-11-24T02:34:53.457Z,2.23
2017-11-24T02:37:21.544Z,5.23
2017-11-24T02:39:49.506Z,4.90
2017-11-24T02:42:20.743Z,3.50
2017-11-24T02:44:48.766Z,6.93
2017-11-24T02:47:17.749Z,8.03
2017-11-24T02:49:46.467Z,3.77
2017-11-24T02:52:18.009Z,5.43
2017-11-24T02:54:46.009Z,5.83
2017-11-24T02:57:13.980Z,5.13
2017-11-24T02:59:42.662Z,5.67
2017-11-24T03:02:10.639Z,10.70
2017-11-24T03:04:44.267Z,7.77
2017-11-24T03:07:13.432Z,3.80
2017-11-24T03:09:41.421Z,4.43
2017-11-24T03:12:09.437Z,6.73
2017-11-24T03:14:41.914Z,4.80
2017-11-24T03:17:09.993Z,3.80
2017-11-24T03:19:39.160Z,8.83
2017-11-24T03:22:11.533Z,10.03
2017-11-24T03:24:39.597Z,6.00
2017-11-24T03:27:07.743Z,5.90
2017-11-24T03:29:35.778Z,5.93
2017-11-24T03:32:03.820Z,6.93
2017-11-24T03:34:31.784Z,4.37
2017-11-24T03:36:59.836Z,4.10
2017-11-24T03:39:28.825Z,4.97
2017-11-24T03:41:56.956Z,5.33
2017-11-24T03:44:27.488Z,5.43
2017-11-24T03:46:56.318Z,4.23
2017-11-24T03:49:25.184Z,5.50
2017-11-24T03:51:53.914Z,4.27
2017-11-24T03:54:24.579Z,5.27
2017-11-24T03:56:55.113Z,5.17
2017-11-24T03:59:23.093Z,10.83
2017-11-24T04:01:51.203Z,10.60
2017-11-24T04:04:19.202Z,4.73
2017-11-24T04:06:47.157Z,5.80
2017-11-24T04:09:15.173Z,11.13
2017-11-24T04:11:46.804Z,2.27
2017-11-24T04:14:14.834Z,7.20
2017-11-24T04:16:42.866Z,5.00
2017-11-24T04:19:11.969Z,6.90
2017-11-24T04:21:40.310Z,4.43
2017-11-24T04:24:08.582Z,6.40
2017-11-24T04:26:36.692Z,6.27
2017-11-24T04:29:04.710Z,6.83
2017-11-24T04:31:32.952Z,8.47
2017-11-24T04:34:02.421Z,7.33
2017-11-24T04:36:30.468Z,10.37
2017-11-24T04:38:58.845Z,4.90
2017-11-24T04:41:27.885Z,7.03
2017-11-24T04:43:56.085Z,6.60
2017-11-24T04:46:24.153Z,6.20
2017-11-24T04:48:53.676Z,4.63
2017-11-24T04:51:21.746Z,8.77
2017-11-24T04:53:49.717Z,9.63
2017-11-24T04:56:17.707Z,6.27
2017-11-24T04:58:45.933Z,4.13
2017-11-24T05:01:14.623Z,4.07
2017-11-24T05:03:43.000Z,7.70
2017-11-24T05:06:10.990Z,9.87
2017-11-24T05:08:38.982Z,8.30
2017-11-24T05:11:07.938Z,12.10
2017-11-24T05:13:36.470Z,7.13
2017-11-24T05:16:04.628Z,5.67
2017-11-24T05:18:32.557Z,6.80
2017-11-24T05:21:01.559Z,7.10
2017-11-24T05:23:29.527Z,6.73
2017-11-24T05:25:57.642Z,6.53
2017-11-24T05:28:25.637Z,10.77
2017-11-24T05:30:58.669Z,5.57
2017-11-24T05:33:26.641Z,7.60
2017-11-24T05:35:55.191Z,5.10
2017-11-24T05:38:23.273Z,4.70
2017-11-24T05:40:51.246Z,9.33
2017-11-24T05:43:21.488Z,8.07
2017-11-24T05:45:49.791Z,8.63
2017-11-24T05:48:17.756Z,4.87
2017-11-24T05:50:45.784Z,6.13
2017-11-24T05:53:13.801Z,6.67
2017-11-24T05:55:41.927Z,8.77
2017-11-24T05:58:10.015Z,8.57
2017-11-24T06:00:38.113Z,5.03
2017-11-24T06:03:06.564Z,5.07
2017-11-24T06:05:34.524Z,7.03
2017-11-24T06:08:02.546Z,6.03
2017-11-24T06:10:30.507Z,8.67
2017-11-24T06:12:58.535Z,7.00
2017-11-24T06:15:26.594Z,3.93
2017-11-24T06:17:54.600Z,11.87
2017-11-24T06:20:22.633Z,5.57
2017-11-24T06:22:50.669Z,7.00
2017-11-24T06:25:18.754Z,8.53
2017-11-24T06:27:47.318Z,12.73
2017-11-24T06:30:16.084Z,5.50
2017-11-24T06:32:44.171Z,6.63
2017-11-24T06:35:12.160Z,7.13
2017-11-24T06:37:40.124Z,9.13
2017-11-24T06:40:08.141Z,8.90
2017-11-24T06:42:36.225Z,5.30
2017-11-24T06:45:04.232Z,7.10
2017-11-24T06:47:32.202Z,10.07
2017-11-24T06:50:00.302Z,7.63
2017-11-24T06:52:28.425Z,7.33
2017-11-24T06:54:56.420Z,11.60
2017-11-24T06:57:24.424Z,5.93
2017-11-24T06:59:52.614Z,6.57
2017-11-24T07:02:20.712Z,9.33
2017-11-24T07:04:48.698Z,10.13
2017-11-24T07:07:16.759Z,11.63
2017-11-24T07:09:44.827Z,9.03
2017-11-24T07:12:12.852Z,11.60
2017-11-24T07:14:40.922Z,8.13
2017-11-24T07:17:08.893Z,7.63
2017-11-24T07:19:36.861Z,7.27
2017-11-24T07:22:04.867Z,6.63
2017-11-24T07:24:32.850Z,13.03
2017-11-24T07:27:01.842Z,9.83
2017-11-24T07:29:30.029Z,11.07
2017-11-24T07:31:58.021Z,7.93
2017-11-24T07:34:26.642Z,8.10
2017-11-24T07:36:54.735Z,9.07
2017-11-24T07:39:22.910Z,10.37
2017-11-24T07:41:50.984Z,12.93
2017-11-24T07:44:19.031Z,12.53
2017-11-24T07:46:47.131Z,11.40
2017-11-24T07:49:15.212Z,13.47
2017-11-24T07:51:43.194Z,7.90
2017-11-24T07:54:11.920Z,9.00
2017-11-24T07:56:39.981Z,9.27
2017-11-24T07:59:08.265Z,8.10
2017-11-24T08:01:37.559Z,7.87
2017-11-24T08:04:05.601Z,7.63
2017-11-24T08:06:33.631Z,11.03
2017-11-24T08:09:02.181Z,8.10
2017-11-24T08:11:30.311Z,14.07
2017-11-24T08:13:59.114Z,10.97
2017-11-24T08:16:27.113Z,7.27
2017-11-24T08:18:55.831Z,9.77
2017-11-24T08:21:24.057Z,6.43
2017-11-24T08:23:52.210Z,6.10
2017-11-24T08:26:21.175Z,6.50
2017-11-24T08:28:49.273Z,11.10
2017-11-24T08:31:17.365Z,6.50
2017-11-24T08:33:45.406Z,7.33
2017-11-24T08:36:13.510Z,10.40
2017-11-24T08:38:42.342Z,5.37
2017-11-24T08:41:10.425Z,10.60
2017-11-24T08:43:38.431Z,8.87
2017-11-24T08:46:06.622Z,16.53
2017-11-24T08:48:40.467Z,17.60
2017-11-24T08:51:08.464Z,13.83
2017-11-24T08:53:36.435Z,16.90
2017-11-24T08:56:04.428Z,15.63
2017-11-24T08:58:32.429Z,13.30
2017-11-24T09:01:00.432Z,11.97
2017-11-24T09:03:28.489Z,12.77
2017-11-24T09:05:56.594Z,13.83
2017-11-24T09:08:24.563Z,9.27
2017-11-24T09:10:52.625Z,19.90
2017-11-24T09:13:21.806Z,13.20
2017-11-24T09:15:50.292Z,10.97
2017-11-24T09:18:18.389Z,12.20
2017-11-24T09:20:46.461Z,19.10
2017-11-24T09:23:14.723Z,9.43
2017-11-24T09:25:42.833Z,12.47
2017-11-24T09:28:11.092Z,10.30
2017-11-24T09:30:39.603Z,8.87
2017-11-24T09:33:07.700Z,10.13
2017-11-24T09:35:37.634Z,7.93
2017-11-24T09:38:06.434Z,7.17
2017-11-24T09:40:36.121Z,10.63
2017-11-24T09:43:04.846Z,5.47
2017-11-24T09:45:32.905Z,6.83
2017-11-24T09:48:01.015Z,10.37
2017-11-24T09:50:29.016Z,10.70
2017-11-24T09:52:57.028Z,11.60
2017-11-24T09:55:25.302Z,9.30
2017-11-24T09:57:53.333Z,13.40
2017-11-24T10:00:21.346Z,51.47
2017-11-24T10:02:51.649Z,27.10
2017-11-24T10:05:19.781Z,82.07
2017-11-24T10:07:48.163Z,82.27
2017-11-24T10:10:16.306Z,21.40
2017-11-24T10:12:44.748Z,62.17
2017-11-24T10:15:14.404Z,15.73
2017-11-24T10:17:42.348Z,18.30
2017-11-24T10:20:10.369Z,12.83
2017-11-24T10:22:38.398Z,7.73
2017-11-24T10:25:08.010Z,11.40
2017-11-24T10:27:36.048Z,5.37
2017-11-24T10:30:04.018Z,7.07
2017-11-24T10:32:32.200Z,4.87
2017-11-24T10:35:00.183Z,6.30
2017-11-24T10:37:28.232Z,3.50
2017-11-24T10:39:56.335Z,7.77
2017-11-24T10:42:24.475Z,8.23
2017-11-24T10:44:52.436Z,6.80
2017-11-24T10:47:20.676Z,7.13
2017-11-24T10:49:48.676Z,3.40
2017-11-24T10:52:16.858Z,6.93
2017-11-24T10:54:44.862Z,5.10
2017-11-24T10:57:12.841Z,5.30
2017-11-24T10:59:40.956Z,5.90
2017-11-24T11:02:09.845Z,4.70
2017-11-24T11:04:37.900Z,2.90
2017-11-24T11:07:05.832Z,6.03
2017-11-24T11:09:34.831Z,5.47
2017-11-24T11:12:02.943Z,6.13
2017-11-24T11:14:30.995Z,21.00
2017-11-24T11:16:59.047Z,83.07
2017-11-24T11:19:27.079Z,19.83
2017-11-24T11:21:55.373Z,6.50
2017-11-24T11:24:23.731Z,2.57
2017-11-24T11:26:51.748Z,3.83
2017-11-24T11:29:19.754Z,4.60
2017-11-24T11:31:47.967Z,6.50
2017-11-24T11:34:16.068Z,5.83
2017-11-24T11:36:44.152Z,6.90
2017-11-24T11:39:12.143Z,5.97
2017-11-24T11:41:40.886Z,4.50
2017-11-24T11:44:09.083Z,11.30
2017-11-24T11:46:37.039Z,6.37
2017-11-24T11:49:07.525Z,11.90
2017-11-24T11:51:36.206Z,6.43
2017-11-24T11:54:04.482Z,5.57
2017-11-24T11:56:33.193Z,7.80
2017-11-24T11:59:02.887Z,4.93
2017-11-24T12:01:31.564Z,4.60
2017-11-24T12:03:59.784Z,8.63
2017-11-24T12:06:28.098Z,39.77
2017-11-24T12:08:56.108Z,6.00
2017-11-24T12:11:24.064Z,9.10
2017-11-24T12:13:52.157Z,30.87
2017-11-24T12:16:20.190Z,13.47
2017-11-24T12:18:48.182Z,3.83
2017-11-24T12:21:16.152Z,6.00
2017-11-24T12:23:44.785Z,5.27
2017-11-24T12:26:12.867Z,4.93
2017-11-24T12:28:41.430Z,6.50
2017-11-24T12:31:09.561Z,7.23
2017-11-24T12:33:37.707Z,4.67
2017-11-24T12:36:05.750Z,7.00
2017-11-24T12:38:33.897Z,4.93
2017-11-24T12:41:01.853Z,6.63
2017-11-24T12:43:30.967Z,3.47
2017-11-24T12:45:59.051Z,8.23
2017-11-24T12:48:27.094Z,6.83
2017-11-24T12:50:55.236Z,4.30
2017-11-24T12:53:23.464Z,5.03
2017-11-24T12:55:51.662Z,5.77
2017-11-24T12:58:19.735Z,6.70
2017-11-24T13:00:47.810Z,3.90
2017-11-24T13:03:15.934Z,3.60
2017-11-24T13:05:43.953Z,3.93
2017-11-24T13:08:11.981Z,11.03
2017-11-24T13:10:40.198Z,5.97
2017-11-24T13:13:08.154Z,4.40
2017-11-24T13:15:36.154Z,4.70
2017-11-24T13:18:04.123Z,4.83
2017-11-24T13:20:32.113Z,5.17
2017-11-24T13:23:00.172Z,5.03
2017-11-24T13:25:28.336Z,3.60
2017-11-24T13:27:56.533Z,4.27
2017-11-24T13:30:24.621Z,6.70
2017-11-24T13:32:52.591Z,5.80
2017-11-24T13:35:21.166Z,5.40
2017-11-24T13:37:49.181Z,4.60
2017-11-24T13:40:17.231Z,8.70
2017-11-24T13:42:45.377Z,7.33
2017-11-24T13:45:13.397Z,8.20
2017-11-24T13:47:41.386Z,7.07
2017-11-24T13:50:09.460Z,7.10
2017-11-24T13:52:37.451Z,11.73
2017-11-24T13:55:05.604Z,9.60
2017-11-24T13:57:33.615Z,12.80
2017-11-24T14:00:03.263Z,9.53
2017-11-24T14:02:31.446Z,11.27
2017-11-24T14:04:59.474Z,12.27
2017-11-24T14:07:27.507Z,13.67
2017-11-24T14:09:55.502Z,13.00
2017-11-24T14:12:23.656Z,15.17
2017-11-24T14:14:51.709Z,15.10
2017-11-24T14:17:19.913Z,17.07
2017-11-24T14:19:47.945Z,14.23
2017-11-24T14:22:15.953Z,12.63
2017-11-24T14:24:44.977Z,11.77
2017-11-24T14:27:13.091Z,11.43
2017-11-24T14:29:41.204Z,12.90
2017-11-24T14:32:09.328Z,10.90
2017-11-24T14:34:37.469Z,10.07
2017-11-24T14:37:05.531Z,13.83
2017-11-24T14:39:33.668Z,12.13
2017-11-24T14:42:01.682Z,10.03
2017-11-24T14:44:29.800Z,40.97
2017-11-24T14:46:57.906Z,33.57
2017-11-24T14:49:25.896Z,13.13
2017-11-24T14:51:53.946Z,8.37
2017-11-24T14:54:21.926Z,7.97
2017-11-24T14:56:49.987Z,11.37
2017-11-24T14:59:18.045Z,6.97
2017-11-24T15:01:46.122Z,7.10
2017-11-24T15:04:14.097Z,7.67
2017-11-24T15:06:42.133Z,5.60
2017-11-24T15:09:10.180Z,5.80
2017-11-24T15:11:38.261Z,7.30
2017-11-24T15:14:06.203Z,6.00
2017-11-24T15:16:34.623Z,10.53
2017-11-24T15:19:02.597Z,6.90
2017-11-24T15:21:30.682Z,10.23
2017-11-24T15:23:58.715Z,6.77
2017-11-24T15:26:26.851Z,7.73
2017-11-24T15:28:55.084Z,5.43
2017-11-24T15:31:23.106Z,7.17
2017-11-24T15:33:51.301Z,10.03
2017-11-24T15:36:19.450Z,14.40
2017-11-24T15:38:47.477Z,8.73
2017-11-24T15:41:15.470Z,6.27
2017-11-24T15:43:43.778Z,17.13
2017-11-24T15:46:13.132Z,10.07
2017-11-24T15:48:41.989Z,5.60
2017-11-24T15:51:09.994Z,7.70
2017-11-24T15:53:37.991Z,6.53
2017-11-24T15:56:05.956Z,10.77
2017-11-24T15:58:34.015Z,7.13
2017-11-24T16:01:02.866Z,7.00
2017-11-24T16:03:30.867Z,8.70
2017-11-24T16:06:00.136Z,12.10
2017-11-24T16:08:28.785Z,8.43
2017-11-24T16:10:57.901Z,6.90
2017-11-24T16:13:26.065Z,11.70
2017-11-24T16:15:54.051Z,8.20
2017-11-24T16:18:22.000Z,9.20
2017-11-24T16:20:50.526Z,7.63
2017-11-24T16:23:18.482Z,7.83
2017-11-24T16:25:46.425Z,8.73
2017-11-24T16:28:14.412Z,8.43
2017-11-24T16:30:42.352Z,8.30
2017-11-24T16:33:10.355Z,15.93
2017-11-24T16:35:38.359Z,9.30
2017-11-24T16:38:06.313Z,9.80
2017-11-24T16:40:34.219Z,10.00
2017-11-24T16:43:02.192Z,9.90
2017-11-24T16:45:30.151Z,10.10
2017-11-24T16:47:59.044Z,9.43
2017-11-24T16:50:26.985Z,13.70
2017-11-24T16:52:54.936Z,11.97
2017-11-24T16:55:22.887Z,9.33
2017-11-24T16:57:50.872Z,10.37
2017-11-24T17:00:18.844Z,12.77
2017-11-24T17:02:51.077Z,10.73
2017-11-24T17:05:19.068Z,11.03
2017-11-24T17:07:47.025Z,11.13
2017-11-24T17:10:15.151Z,10.70
2017-11-24T17:12:43.249Z,15.87
2017-11-24T17:15:11.261Z,14.37
2017-11-24T17:17:39.395Z,12.23
2017-11-24T17:20:07.436Z,14.00
2017-11-24T17:22:35.455Z,11.30
2017-11-24T17:25:03.480Z,15.33
2017-11-24T17:27:31.417Z,11.07
2017-11-24T17:29:59.377Z,14.43
2017-11-24T17:32:27.320Z,25.53
2017-11-24T17:34:55.308Z,34.17
2017-11-24T17:37:23.344Z,12.77
2017-11-24T17:39:54.860Z,11.23
2017-11-24T17:42:22.808Z,14.67
2017-11-24T17:44:51.221Z,13.90
2017-11-24T17:47:19.124Z,13.30
2017-11-24T17:49:49.427Z,11.87
2017-11-24T17:52:17.396Z,10.63
2017-11-24T17:54:45.712Z,9.37
2017-11-24T17:57:13.712Z,12.50
2017-11-24T17:59:41.735Z,11.67
2017-11-24T18:02:09.657Z,10.10
2017-11-24T18:04:39.042Z,10.00
2017-11-24T18:07:06.975Z,10.70
2017-11-24T18:09:34.950Z,13.27
2017-11-24T18:12:02.954Z,10.60
2017-11-24T18:14:30.908Z,9.33
2017-11-24T18:16:58.824Z,8.60
2017-11-24T18:19:26.806Z,9.90
2017-11-24T18:21:55.386Z,6.03
2017-11-24T18:24:23.585Z,9.83
2017-11-24T18:26:51.647Z,8.23
2017-11-24T18:29:19.571Z,7.93
2017-11-24T18:31:47.607Z,33.57
2017-11-24T18:34:16.010Z,15.40
2017-11-24T18:36:44.039Z,9.73
2017-11-24T18:39:12.198Z,8.30
2017-11-24T18:41:40.211Z,11.70
2017-11-24T18:44:11.782Z,15.30
2017-11-24T18:46:40.332Z,8.70
2017-11-24T18:49:08.484Z,11.70
2017-11-24T18:51:36.411Z,10.67
2017-11-24T18:54:04.384Z,12.50
2017-11-24T18:56:32.631Z,15.70
2017-11-24T18:59:00.902Z,11.40
2017-11-24T19:01:29.505Z,11.73
2017-11-24T19:03:57.555Z,12.67
2017-11-24T19:06:26.413Z,13.80
2017-11-24T19:08:54.484Z,13.03
2017-11-24T19:11:23.274Z,12.93
2017-11-24T19:13:51.242Z,12.93
2017-11-24T19:16:19.289Z,11.40
2017-11-24T19:18:47.928Z,14.13
2017-11-24T19:21:15.898Z,11.50
2017-11-24T19:23:43.868Z,14.13
2017-11-24T19:26:11.847Z,49.17
2017-11-24T19:28:39.810Z,27.73
2017-11-24T19:31:07.783Z,16.27
2017-11-24T19:33:35.809Z,16.00
2017-11-24T19:36:04.012Z,15.23
2017-11-24T19:38:32.399Z,13.40
2017-11-24T19:41:00.439Z,15.93
2017-11-24T19:43:28.726Z,17.80
2017-11-24T19:45:56.827Z,14.77
2017-11-24T19:48:24.962Z,17.00
2017-11-24T19:50:53.096Z,20.70
2017-11-24T19:53:21.154Z,18.90
2017-11-24T19:55:49.193Z,18.10
2017-11-24T19:58:17.189Z,18.90
2017-11-24T20:00:45.180Z,28.90
2017-11-24T20:03:13.139Z,31.43
2017-11-24T20:05:41.078Z,21.53
2017-11-24T20:08:09.032Z,15.33
2017-11-24T20:10:36.942Z,19.77
2017-11-24T20:13:04.883Z,19.30
2017-11-24T20:15:32.822Z,21.33
2017-11-24T20:18:00.814Z,26.70
2017-11-24T20:20:28.922Z,19.97
2017-11-24T20:22:56.864Z,18.40
2017-11-24T20:25:24.810Z,26.30
2017-11-24T20:27:52.787Z,29.60
2017-11-24T20:30:20.735Z,25.83
2017-11-24T20:32:48.672Z,23.67
2017-11-24T20:35:17.513Z,22.37
2017-11-24T20:37:45.528Z,22.50
2017-11-24T20:40:13.636Z,20.30
2017-11-24T20:42:41.617Z,22.23
2017-11-24T20:45:09.550Z,21.40
2017-11-24T20:47:37.463Z,28.20
2017-11-24T20:50:05.401Z,23.90
2017-11-24T20:52:33.390Z,26.93
2017-11-24T20:55:01.344Z,31.50
2017-11-24T20:57:29.319Z,25.90
2017-11-24T20:59:57.316Z,23.57
2017-11-24T21:02:25.296Z,21.77
2017-11-24T21:04:53.273Z,21.27
2017-11-24T21:07:21.236Z,23.43
2017-11-24T21:09:49.202Z,20.93
2017-11-24T21:12:17.218Z,23.27
2017-11-24T21:14:45.147Z,22.33
2017-11-24T21:17:13.090Z,22.60
2017-11-24T21:19:41.026Z,28.10
2017-11-24T21:22:08.987Z,23.60
2017-11-24T21:24:36.937Z,20.27
2017-11-24T21:27:04.877Z,22.87
2017-11-24T21:29:32.848Z,20.47
2017-11-24T21:32:00.890Z,28.13
2017-11-24T21:34:28.859Z,26.80
2017-11-24T21:36:59.015Z,23.10
2017-11-24T21:39:26.997Z,29.57
2017-11-24T21:41:54.951Z,27.73
2017-11-24T21:44:22.877Z,23.90
2017-11-24T21:46:50.856Z,27.23
2017-11-24T21:49:18.825Z,27.33
2017-11-24T21:51:46.809Z,26.00
2017-11-24T21:54:14.750Z,32.47
2017-11-24T21:56:42.762Z,29.80
2017-11-24T21:59:10.694Z,31.30
2017-11-24T22:01:38.761Z,31.57
2017-11-24T22:04:06.774Z,29.43
2017-11-24T22:06:34.754Z,29.17
2017-11-24T22:09:02.703Z,22.57
2017-11-24T22:11:30.712Z,26.30
2017-11-24T22:13:58.672Z,27.93
2017-11-24T22:16:26.644Z,26.00
2017-11-24T22:18:54.589Z,25.93
2017-11-24T22:21:22.579Z,27.13
2017-11-24T22:23:50.600Z,26.93
2017-11-24T22:26:18.599Z,28.43
2017-11-24T22:28:46.553Z,26.63
2017-11-24T22:31:14.578Z,29.53
2017-11-24T22:33:42.519Z,25.57
2017-11-24T22:36:12.246Z,29.57
2017-11-24T22:38:40.214Z,26.27
2017-11-24T22:41:08.158Z,27.03
2017-11-24T22:43:36.121Z,30.30
2017-11-24T22:46:04.048Z,30.53
2017-11-24T22:48:32.064Z,34.40
2017-11-24T22:51:00.001Z,26.80
2017-11-24T22:53:27.963Z,29.03
2017-11-24T22:55:55.936Z,29.50
2017-11-24T22:58:23.898Z,31.00
2017-11-24T23:00:51.868Z,29.93
2017-11-24T23:03:19.780Z,34.77
2017-11-24T23:05:47.755Z,34.60
2017-11-24T23:08:15.763Z,31.93
2017-11-24T23:10:43.718Z,38.30
2017-11-24T23:13:11.680Z,39.20
2017-11-24T23:15:39.653Z,37.90
2017-11-24T23:18:07.689Z,32.23
2017-11-24T23:20:35.791Z,32.03
2017-11-24T23:23:03.804Z,37.27
2017-11-24T23:25:31.779Z,30.90
2017-11-24T23:27:59.794Z,36.17
2017-11-24T23:30:27.835Z,33.70
2017-11-24T23:32:55.790Z,34.47
2017-11-24T23:35:23.819Z,37.17
2017-11-24T23:37:51.789Z,34.13
2017-11-24T23:40:19.797Z,38.97
2017-11-24T23:42:47.899Z,38.23
2017-11-24T23:45:15.878Z,43.23
2017-11-24T23:47:43.920Z,38.13
2017-11-24T23:50:11.859Z,35.47
2017-11-24T23:52:40.521Z,42.97
2017-11-24T23:55:08.491Z,43.67
2017-11-24T23:57:36.413Z,41.93
